createdAt,value
2018-01-27T00:01:14.337Z,5.90
2018-01-27T00:04:19.668Z,5.90
2018-01-27T00:07:26.073Z,5.80
2018-01-27T00:10:30.846Z,5.80
2018-01-27T00:13:35.718Z,5.80
2018-01-27T00:16:40.736Z,5.80
2018-01-27T00:19:46.274Z,5.80
2018-01-27T00:22:57.393Z,5.80
2018-01-27T00:26:02.972Z,5.80
2018-01-27T00:29:08.745Z,5.90
2018-01-27T00:32:14.689Z,6.10
2018-01-27T00:35:19.633Z,6.00
2018-01-27T00:38:25.416Z,6.00
2018-01-27T00:41:31.084Z,6.30
2018-01-27T00:44:36.541Z,6.30
2018-01-27T00:47:41.692Z,6.50
2018-01-27T00:50:46.503Z,6.70
2018-01-27T00:53:51.691Z,6.90
2018-01-27T00:56:57.048Z,6.80
2018-01-27T01:00:02.493Z,6.80
2018-01-27T01:03:07.851Z,6.80
2018-01-27T01:06:13.645Z,6.80
2018-01-27T01:09:19.372Z,6.80
2018-01-27T01:12:24.205Z,6.80
2018-01-27T01:15:29.080Z,6.60
2018-01-27T01:18:35.221Z,6.70
2018-01-27T01:21:40.335Z,6.60
2018-01-27T01:24:46.002Z,6.70
2018-01-27T01:27:50.992Z,6.70
2018-01-27T01:30:56.031Z,6.50
2018-01-27T01:34:01.626Z,6.30
2018-01-27T01:37:06.856Z,6.20
2018-01-27T01:40:12.547Z,6.20
2018-01-27T01:43:24.041Z,6.20
2018-01-27T01:46:30.162Z,6.20
2018-01-27T01:49:41.881Z,6.20
2018-01-27T01:52:47.006Z,6.20
2018-01-27T01:55:52.840Z,6.20
2018-01-27T01:58:58.849Z,6.30
2018-01-27T02:02:04.859Z,6.20
2018-01-27T02:05:10.169Z,6.20
2018-01-27T02:08:15.045Z,6.30
2018-01-27T02:11:20.411Z,6.40
2018-01-27T02:14:26.182Z,6.50
2018-01-27T02:17:31.345Z,6.50
2018-01-27T02:20:36.566Z,6.40
2018-01-27T02:23:42.202Z,6.50
2018-01-27T02:26:48.097Z,6.40
2018-01-27T02:29:53.914Z,6.60
2018-01-27T02:32:59.587Z,6.50
2018-01-27T02:36:05.361Z,6.50
2018-01-27T02:39:10.784Z,6.50
2018-01-27T02:42:16.052Z,6.50
2018-01-27T02:45:21.850Z,6.60
2018-01-27T02:48:27.909Z,6.40
2018-01-27T02:51:34.261Z,6.50
2018-01-27T02:54:39.407Z,6.40
2018-01-27T02:57:45.799Z,6.20
2018-01-27T03:00:51.214Z,6.20
2018-01-27T03:03:56.468Z,6.00
2018-01-27T03:07:02.031Z,6.00
2018-01-27T03:10:07.329Z,6.00
2018-01-27T03:13:13.038Z,6.00
2018-01-27T03:16:18.538Z,6.00
2018-01-27T03:19:24.027Z,5.90
2018-01-27T03:22:29.382Z,5.80
2018-01-27T03:25:35.286Z,5.70
2018-01-27T03:28:40.836Z,5.70
2018-01-27T03:31:47.229Z,5.60
2018-01-27T03:34:52.641Z,5.60
2018-01-27T03:37:58.566Z,5.60
2018-01-27T03:41:04.222Z,5.50
2018-01-27T03:44:09.726Z,5.50
2018-01-27T03:47:14.801Z,5.50
2018-01-27T03:50:20.027Z,5.50
2018-01-27T03:53:25.441Z,5.50
2018-01-27T03:56:30.416Z,5.40
2018-01-27T03:59:36.108Z,5.40
2018-01-27T04:02:41.483Z,5.40
2018-01-27T04:05:47.073Z,5.40
2018-01-27T04:08:52.783Z,5.50
2018-01-27T04:11:58.499Z,5.60
2018-01-27T04:15:04.129Z,5.60
2018-01-27T04:18:09.888Z,5.60
2018-01-27T04:21:14.901Z,5.60
2018-01-27T04:24:20.772Z,5.80
2018-01-27T04:27:26.666Z,5.90
2018-01-27T04:30:31.851Z,5.90
2018-01-27T04:33:38.123Z,5.90
2018-01-27T04:36:43.867Z,5.80
2018-01-27T04:39:50.715Z,5.80
2018-01-27T04:42:55.755Z,5.70
2018-01-27T04:46:00.884Z,5.60
2018-01-27T04:49:06.142Z,5.60
2018-01-27T04:52:11.693Z,5.60
2018-01-27T04:55:17.515Z,5.40
2018-01-27T04:58:22.413Z,5.30
2018-01-27T05:01:28.113Z,4.90
2018-01-27T05:04:33.185Z,4.70
2018-01-27T05:07:39.146Z,4.30
2018-01-27T05:10:44.689Z,4.30
2018-01-27T05:13:51.081Z,4.10
2018-01-27T05:16:56.765Z,4.10
2018-01-27T05:20:02.566Z,4.10
2018-01-27T05:23:08.085Z,4.10
2018-01-27T05:26:13.250Z,4.10
2018-01-27T05:29:18.825Z,4.10
2018-01-27T05:32:24.095Z,4.10
2018-01-27T05:35:29.697Z,4.00
2018-01-27T05:38:35.052Z,4.10
2018-01-27T05:41:40.244Z,4.10
2018-01-27T05:44:45.613Z,4.10
2018-01-27T05:47:50.886Z,4.00
2018-01-27T05:50:57.094Z,4.00
2018-01-27T05:54:03.141Z,4.20
2018-01-27T05:57:09.794Z,4.50
2018-01-27T06:00:14.788Z,4.50
2018-01-27T06:03:20.030Z,4.60
2018-01-27T06:06:26.094Z,4.50
2018-01-27T06:09:31.545Z,4.60
2018-01-27T06:12:36.967Z,4.60
2018-01-27T06:15:42.653Z,4.70
2018-01-27T06:18:47.942Z,4.70
2018-01-27T06:21:53.734Z,4.70
2018-01-27T06:24:59.141Z,4.50
2018-01-27T06:28:04.363Z,4.30
2018-01-27T06:31:10.458Z,4.10
2018-01-27T06:34:15.558Z,4.10
2018-01-27T06:37:21.225Z,4.30
2018-01-27T06:40:26.045Z,4.30
2018-01-27T06:43:31.205Z,4.20
2018-01-27T06:46:37.241Z,3.90
2018-01-27T06:49:42.503Z,3.90
2018-01-27T06:52:48.142Z,3.80
2018-01-27T06:55:53.994Z,3.60
2018-01-27T06:58:59.700Z,3.60
2018-01-27T07:02:04.581Z,3.70
2018-01-27T07:05:09.701Z,3.60
2018-01-27T07:08:14.813Z,3.60
2018-01-27T07:11:19.833Z,3.60
2018-01-27T07:14:25.213Z,3.80
2018-01-27T07:17:30.141Z,3.70
2018-01-27T07:20:35.201Z,3.80
2018-01-27T07:23:40.972Z,4.00
2018-01-27T07:26:46.149Z,4.00
2018-01-27T07:29:51.791Z,4.00
2018-01-27T07:32:57.531Z,3.90
2018-01-27T07:36:03.322Z,4.10
2018-01-27T07:39:09.056Z,4.10
2018-01-27T07:42:14.322Z,4.30
2018-01-27T07:45:19.361Z,4.40
2018-01-27T07:48:24.971Z,4.60
2018-01-27T07:51:30.089Z,4.50
2018-01-27T07:54:35.353Z,4.60
2018-01-27T07:57:41.037Z,4.50
2018-01-27T08:00:47.005Z,4.50
2018-01-27T08:03:53.789Z,4.60
2018-01-27T08:06:58.527Z,4.60
2018-01-27T08:10:03.704Z,4.70
2018-01-27T08:13:09.394Z,4.50
2018-01-27T08:16:14.850Z,4.50
2018-01-27T08:19:22.823Z,4.60
2018-01-27T08:22:29.268Z,4.70
2018-01-27T08:25:34.110Z,4.60
2018-01-27T08:28:39.731Z,4.80
2018-01-27T08:31:45.608Z,4.80
2018-01-27T08:34:50.864Z,4.90
2018-01-27T08:37:57.155Z,5.10
2018-01-27T08:41:02.843Z,5.10
2018-01-27T08:44:09.038Z,5.20
2018-01-27T08:47:14.065Z,5.40
2018-01-27T08:50:20.405Z,5.40
2018-01-27T08:53:26.459Z,5.60
2018-01-27T08:56:31.956Z,5.50
2018-01-27T08:59:37.346Z,5.60
2018-01-27T09:02:42.809Z,5.70
2018-01-27T09:05:48.073Z,5.80
2018-01-27T09:08:53.566Z,5.90
2018-01-27T09:11:58.514Z,6.00
2018-01-27T09:15:03.330Z,5.90
2018-01-27T09:18:08.125Z,5.90
2018-01-27T09:21:13.397Z,6.00
2018-01-27T09:24:19.478Z,5.80
2018-01-27T09:27:25.378Z,5.80
2018-01-27T09:30:31.708Z,5.60
2018-01-27T09:33:36.823Z,5.60
2018-01-27T09:36:42.045Z,5.80
2018-01-27T09:39:47.798Z,5.90
2018-01-27T09:42:53.137Z,5.90
2018-01-27T09:45:59.141Z,6.10
2018-01-27T09:49:05.117Z,6.00
2018-01-27T09:52:10.587Z,6.00
2018-01-27T09:55:16.025Z,6.20
2018-01-27T09:58:21.561Z,6.30
2018-01-27T10:01:26.647Z,6.30
2018-01-27T10:04:32.217Z,6.10
2018-01-27T10:07:37.729Z,6.10
2018-01-27T10:10:42.997Z,6.10
2018-01-27T10:13:48.901Z,6.20
2018-01-27T10:16:54.226Z,6.20
2018-01-27T10:19:59.613Z,6.20
2018-01-27T10:23:04.654Z,6.20
2018-01-27T10:26:09.929Z,6.30
2018-01-27T10:29:15.734Z,6.40
2018-01-27T10:32:21.576Z,6.40
2018-01-27T10:35:27.234Z,6.50
2018-01-27T10:38:32.454Z,6.50
2018-01-27T10:41:38.716Z,6.50
2018-01-27T10:44:45.185Z,6.50
2018-01-27T10:47:50.529Z,6.60
2018-01-27T10:50:56.720Z,6.70
2018-01-27T10:54:01.522Z,6.70
2018-01-27T10:57:06.406Z,6.70
2018-01-27T11:00:12.069Z,6.80
2018-01-27T11:03:17.067Z,6.70
2018-01-27T11:06:22.633Z,6.50
2018-01-27T11:09:28.125Z,6.50
2018-01-27T11:12:34.113Z,6.80
2018-01-27T11:15:39.747Z,6.80
2018-01-27T11:18:44.803Z,6.80
2018-01-27T11:21:50.629Z,6.90
2018-01-27T11:24:57.129Z,6.90
2018-01-27T11:28:02.525Z,6.90
2018-01-27T11:31:07.480Z,6.90
2018-01-27T11:34:12.758Z,7.00
2018-01-27T11:37:18.362Z,6.90
2018-01-27T11:40:23.809Z,6.80
2018-01-27T11:43:31.039Z,6.80
2018-01-27T11:46:36.345Z,6.70
2018-01-27T11:49:41.865Z,6.80
2018-01-27T11:52:46.733Z,6.80
2018-01-27T11:55:52.428Z,6.60
2018-01-27T11:58:58.707Z,6.40
2018-01-27T12:02:04.250Z,6.40
2018-01-27T12:05:09.074Z,6.30
2018-01-27T12:08:15.414Z,6.20
2018-01-27T12:11:21.679Z,6.10
2018-01-27T12:14:27.263Z,6.00
2018-01-27T12:17:32.452Z,6.20
2018-01-27T12:20:37.517Z,6.30
2018-01-27T12:23:42.353Z,6.30
2018-01-27T12:26:48.225Z,6.40
2018-01-27T12:29:53.639Z,6.40
2018-01-27T12:32:59.733Z,6.10
2018-01-27T12:36:05.409Z,6.10
2018-01-27T12:39:10.681Z,6.30
2018-01-27T12:42:16.981Z,6.60
2018-01-27T12:45:22.188Z,6.60
2018-01-27T12:48:27.016Z,6.50
2018-01-27T12:51:32.193Z,6.30
2018-01-27T12:54:38.064Z,6.30
2018-01-27T12:57:43.827Z,6.20
2018-01-27T13:00:49.392Z,6.20
2018-01-27T13:03:55.641Z,6.20
2018-01-27T13:07:01.493Z,6.20
2018-01-27T13:10:06.894Z,6.30
2018-01-27T13:13:11.983Z,6.30
2018-01-27T13:16:18.012Z,6.30
2018-01-27T13:19:23.137Z,6.50
2018-01-27T13:22:29.029Z,6.60
2018-01-27T13:25:34.825Z,6.70
2018-01-27T13:28:41.381Z,6.30
2018-01-27T13:31:47.457Z,6.20
2018-01-27T13:34:53.220Z,6.20
2018-01-27T13:37:58.609Z,6.60
2018-01-27T13:41:04.309Z,6.60
2018-01-27T13:44:09.501Z,6.20
2018-01-27T13:47:15.010Z,6.10
2018-01-27T13:50:20.722Z,5.90
2018-01-27T13:53:26.522Z,5.90
2018-01-27T13:56:32.335Z,5.90
2018-01-27T13:59:37.340Z,6.00
2018-01-27T14:02:43.550Z,6.20
2018-01-27T14:05:49.244Z,6.20
2018-01-27T14:08:54.229Z,6.20
2018-01-27T14:11:59.762Z,6.20
2018-01-27T14:15:05.500Z,6.40
2018-01-27T14:18:11.541Z,6.60
2018-01-27T14:21:17.709Z,6.50
2018-01-27T14:24:22.829Z,6.40
2018-01-27T14:27:28.293Z,6.20
2018-01-27T14:30:36.987Z,6.20
2018-01-27T14:33:42.654Z,6.10
2018-01-27T14:36:54.497Z,6.20
2018-01-27T14:40:00.240Z,6.20
2018-01-27T14:43:05.320Z,6.20
2018-01-27T14:46:10.707Z,6.20
2018-01-27T14:49:17.051Z,6.00
2018-01-27T14:52:22.927Z,5.90
2018-01-27T14:55:27.921Z,5.90
2018-01-27T14:58:33.009Z,5.90
2018-01-27T15:01:38.405Z,6.00
2018-01-27T15:04:43.398Z,6.00
2018-01-27T15:07:49.721Z,6.00
2018-01-27T15:10:55.398Z,6.00
2018-01-27T15:14:01.246Z,6.10
2018-01-27T15:17:06.544Z,6.10
2018-01-27T15:20:12.486Z,6.00
2018-01-27T15:23:17.749Z,5.90
2018-01-27T15:26:22.835Z,5.70
2018-01-27T15:29:28.792Z,5.80
2018-01-27T15:32:34.384Z,5.80
2018-01-27T15:35:40.910Z,5.70
2018-01-27T15:38:47.414Z,5.60
2018-01-27T15:41:52.788Z,5.50
2018-01-27T15:44:58.613Z,5.50
2018-01-27T15:48:04.239Z,5.60
2018-01-27T15:51:09.899Z,5.50
2018-01-27T15:54:15.551Z,5.60
2018-01-27T15:57:20.529Z,5.60
2018-01-27T16:00:26.365Z,5.60
2018-01-27T16:03:32.157Z,5.60
2018-01-27T16:06:37.151Z,5.60
2018-01-27T16:09:42.744Z,5.50
2018-01-27T16:12:47.983Z,5.40
2018-01-27T16:15:53.157Z,5.40
2018-01-27T16:18:58.962Z,5.50
2018-01-27T16:22:04.021Z,5.40
2018-01-27T16:25:09.463Z,5.60
2018-01-27T16:28:14.605Z,5.60
2018-01-27T16:31:20.768Z,5.70
2018-01-27T16:34:26.449Z,5.40
2018-01-27T16:37:31.526Z,5.20
2018-01-27T16:40:36.488Z,5.20
2018-01-27T16:43:42.233Z,5.30
2018-01-27T16:46:49.179Z,5.20
2018-01-27T16:49:54.093Z,5.20
2018-01-27T16:52:59.678Z,5.30
2018-01-27T16:56:05.244Z,5.30
2018-01-27T16:59:11.055Z,5.30
2018-01-27T17:02:16.901Z,5.30
2018-01-27T17:05:21.864Z,5.10
2018-01-27T17:08:27.281Z,5.20
2018-01-27T17:11:32.701Z,5.10
2018-01-27T17:14:39.225Z,5.00
2018-01-27T17:17:44.290Z,4.90
2018-01-27T17:20:50.629Z,5.00
2018-01-27T17:23:55.968Z,5.00
2018-01-27T17:27:00.950Z,5.00
2018-01-27T17:30:06.231Z,5.10
2018-01-27T17:33:11.425Z,5.20
2018-01-27T17:36:17.101Z,5.10
2018-01-27T17:39:22.797Z,5.10
2018-01-27T17:42:28.765Z,5.00
2018-01-27T17:45:34.165Z,5.10
2018-01-27T17:48:39.961Z,5.20
2018-01-27T17:51:45.693Z,5.20
2018-01-27T17:54:50.396Z,5.20
2018-01-27T17:57:55.880Z,5.00
2018-01-27T18:01:01.593Z,5.00
2018-01-27T18:04:07.683Z,5.10
2018-01-27T18:07:13.310Z,5.10
2018-01-27T18:10:18.350Z,5.10
2018-01-27T18:13:23.884Z,5.10
2018-01-27T18:16:29.082Z,5.20
2018-01-27T18:19:34.541Z,5.40
2018-01-27T18:22:40.261Z,5.40
2018-01-27T18:25:45.914Z,5.40
2018-01-27T18:28:50.847Z,5.50
2018-01-27T18:31:57.137Z,5.50
2018-01-27T18:35:02.612Z,5.50
2018-01-27T18:38:07.853Z,5.50
2018-01-27T18:41:14.261Z,5.50
2018-01-27T18:44:19.701Z,5.30
2018-01-27T18:47:25.284Z,5.30
2018-01-27T18:50:30.424Z,5.10
2018-01-27T18:53:35.423Z,5.10
2018-01-27T18:56:41.960Z,5.00
2018-01-27T18:59:48.469Z,4.80
2018-01-27T19:02:54.234Z,4.80
2018-01-27T19:05:59.754Z,4.60
2018-01-27T19:09:06.168Z,4.80
2018-01-27T19:12:12.537Z,4.90
2018-01-27T19:15:18.225Z,4.90
2018-01-27T19:18:24.142Z,4.90
2018-01-27T19:21:29.005Z,5.10
2018-01-27T19:24:36.060Z,5.10
2018-01-27T19:27:42.281Z,5.10
2018-01-27T19:30:47.308Z,5.20
2018-01-27T19:33:52.117Z,5.10
2018-01-27T19:36:57.220Z,5.00
2018-01-27T19:40:03.668Z,5.10
2018-01-27T19:43:09.981Z,5.10
2018-01-27T19:46:15.734Z,5.10
2018-01-27T19:49:21.355Z,5.20
2018-01-27T19:52:27.370Z,5.20
2018-01-27T19:55:34.019Z,5.30
2018-01-27T19:58:39.806Z,5.30
2018-01-27T20:01:45.319Z,5.30
2018-01-27T20:04:50.636Z,5.30
2018-01-27T20:07:56.605Z,5.40
2018-01-27T20:11:09.985Z,5.40
2018-01-27T20:14:14.857Z,5.40
2018-01-27T20:17:20.267Z,5.40
2018-01-27T20:20:26.117Z,5.10
2018-01-27T20:23:31.456Z,5.10
2018-01-27T20:26:37.386Z,5.00
2018-01-27T20:29:42.741Z,5.00
2018-01-27T20:32:48.491Z,4.90
2018-01-27T20:35:55.193Z,5.00
2018-01-27T20:39:00.800Z,5.00
2018-01-27T20:42:06.930Z,5.20
2018-01-27T20:45:12.375Z,5.20
2018-01-27T20:48:18.092Z,5.20
2018-01-27T20:51:23.117Z,5.20
2018-01-27T20:54:28.215Z,5.10
2018-01-27T20:57:33.715Z,5.20
2018-01-27T21:00:39.478Z,5.20
2018-01-27T21:03:44.747Z,5.10
2018-01-27T21:06:50.473Z,5.20
2018-01-27T21:09:55.918Z,5.20
2018-01-27T21:13:02.760Z,5.30
2018-01-27T21:16:08.298Z,5.20
2018-01-27T21:19:15.119Z,5.10
2018-01-27T21:22:19.990Z,5.00
2018-01-27T21:25:25.344Z,4.90
2018-01-27T21:28:30.829Z,4.90
2018-01-27T21:31:35.706Z,4.90
2018-01-27T21:34:41.169Z,5.00
2018-01-27T21:37:47.661Z,4.90
2018-01-27T21:40:52.549Z,4.90
2018-01-27T21:43:57.760Z,4.90
2018-01-27T21:47:02.977Z,4.90
2018-01-27T21:50:08.354Z,5.00
2018-01-27T21:53:14.605Z,5.20
2018-01-27T21:56:20.109Z,5.10
2018-01-27T21:59:25.105Z,5.30
2018-01-27T22:02:30.347Z,5.30
2018-01-27T22:05:35.782Z,5.40
2018-01-27T22:08:40.897Z,5.40
2018-01-27T22:11:46.413Z,5.50
2018-01-27T22:14:52.010Z,5.50
2018-01-27T22:17:56.952Z,5.40
2018-01-27T22:21:02.802Z,5.30
2018-01-27T22:24:07.818Z,5.20
2018-01-27T22:27:14.415Z,5.00
2018-01-27T22:30:20.177Z,5.00
2018-01-27T22:33:26.353Z,5.00
2018-01-27T22:36:32.174Z,5.00
2018-01-27T22:39:37.137Z,5.00
2018-01-27T22:42:42.829Z,5.00
2018-01-27T22:45:48.461Z,5.00
2018-01-27T22:48:54.502Z,4.80
2018-01-27T22:52:00.147Z,4.90
2018-01-27T22:55:05.271Z,4.90
2018-01-27T22:58:11.526Z,4.90
2018-01-27T23:01:23.404Z,4.80
2018-01-27T23:04:28.797Z,4.70
2018-01-27T23:07:33.759Z,4.80
2018-01-27T23:10:39.303Z,4.80
2018-01-27T23:13:45.417Z,4.70
2018-01-27T23:16:50.673Z,4.80
2018-01-27T23:19:56.646Z,4.80
2018-01-27T23:23:01.787Z,4.80
2018-01-27T23:26:06.734Z,4.80
2018-01-27T23:29:12.209Z,4.80
2018-01-27T23:32:17.469Z,4.80
2018-01-27T23:35:22.734Z,4.80
2018-01-27T23:38:29.186Z,4.90
2018-01-27T23:41:34.311Z,4.90
2018-01-27T23:44:39.650Z,5.00
2018-01-27T23:47:45.086Z,5.00
2018-01-27T23:50:51.462Z,5.20
2018-01-27T23:53:56.265Z,5.20
2018-01-27T23:57:01.605Z,5.30
